Time;durP1;ratioP1;P1;durP2;ratioP2;P2;SDS_P1;SDS_P2;PMS_P1;PMS_P2;Temp;Humidity;BMP_temperature;BMP_pressure;BME280_temperature;BME280_humidity;BME280_pressure;Samples;Min_cycle;Max_cycle;Signal;HPM_P1;HPM_P2
2021/09/02 00:01:52;;;;;;;13.57;8.38;;;16.30;96.70;;;;;;5098103;28;20055;-71
2021/09/02 00:04:17;;;;;;;14.35;8.05;;;16.40;96.80;;;;;;5072511;28;20522;-70
2021/09/02 00:06:43;;;;;;;12.93;7.95;;;16.40;96.70;;;;;;5070353;28;20365;-72
2021/09/02 00:09:08;;;;;;;15.75;8.25;;;16.30;96.70;;;;;;5090356;28;20031;-71
2021/09/02 00:11:34;;;;;;;13.20;8.23;;;16.30;96.80;;;;;;5101921;28;20049;-72
2021/09/02 00:14:00;;;;;;;13.38;8.15;;;16.30;96.90;;;;;;5090074;28;20825;-73
2021/09/02 00:16:25;;;;;;;14.43;8.30;;;16.40;97.10;;;;;;5087658;28;20484;-71
2021/09/02 00:18:51;;;;;;;13.35;8.45;;;16.30;97.20;;;;;;5101751;28;20063;-73
2021/09/02 00:21:16;;;;;;;13.20;8.20;;;16.40;97.00;;;;;;5089791;28;20107;-72
2021/09/02 00:23:42;;;;;;;12.45;7.90;;;16.30;97.20;;;;;;5092625;28;20106;-71
2021/09/02 00:26:07;;;;;;;13.70;7.97;;;16.30;97.10;;;;;;5087884;28;20074;-73
2021/09/02 00:28:33;;;;;;;12.07;8.00;;;16.30;97.20;;;;;;5069256;28;20028;-71
2021/09/02 00:30:58;;;;;;;12.90;7.65;;;16.30;97.30;;;;;;5087770;28;20568;-72
2021/09/02 00:33:24;;;;;;;12.35;7.90;;;16.30;97.20;;;;;;5099500;28;20042;-72
2021/09/02 00:35:49;;;;;;;12.73;8.27;;;16.30;97.30;;;;;;5108034;28;20016;-72
2021/09/02 00:38:15;;;;;;;12.65;7.45;;;16.30;97.30;;;;;;5092775;28;20030;-70
2021/09/02 00:40:40;;;;;;;14.93;8.18;;;16.30;97.40;;;;;;5087705;28;20032;-71
2021/09/02 00:43:06;;;;;;;16.27;9.10;;;16.30;97.30;;;;;;5096692;28;20138;-71
2021/09/02 00:45:32;;;;;;;13.10;7.85;;;16.30;97.40;;;;;;5107908;28;20534;-71
2021/09/02 00:47:58;;;;;;;13.70;8.13;;;16.30;97.40;;;;;;5107703;28;20031;-72
2021/09/02 00:50:24;;;;;;;17.50;9.38;;;16.30;97.60;;;;;;5101456;28;20032;-71
2021/09/02 00:52:50;;;;;;;13.38;8.30;;;16.30;97.60;;;;;;5075703;28;20547;-70
2021/09/02 00:55:16;;;;;;;16.27;9.10;;;16.20;97.40;;;;;;5107513;28;20015;-71
2021/09/02 00:57:41;;;;;;;15.13;8.80;;;16.20;97.40;;;;;;5098855;28;20547;-71
2021/09/02 01:00:16;;;;;;;12.13;7.88;;;16.30;97.40;;;;;;5086843;28;20024;-73
2021/09/02 01:02:43;;;;;;;12.65;8.05;;;16.30;97.70;;;;;;5106623;28;20066;-73
2021/09/02 01:05:09;;;;;;;12.45;8.18;;;16.20;97.90;;;;;;5084396;28;20026;-72
2021/09/02 01:07:35;;;;;;;13.13;8.70;;;16.20;97.80;;;;;;5091850;28;20028;-72
2021/09/02 01:10:03;;;;;;;12.15;7.57;;;16.30;97.90;;;;;;5088380;28;20469;-72
2021/09/02 01:12:31;;;;;;;11.95;7.95;;;16.30;97.80;;;;;;5086971;28;20028;-71
2021/09/02 01:15:02;;;;;;;12.77;8.10;;;16.20;97.60;;;;;;5086729;28;20027;-71
2021/09/02 01:17:29;;;;;;;13.50;7.93;;;16.30;97.60;;;;;;5087044;28;20020;-71
2021/09/02 01:19:54;;;;;;;16.35;8.65;;;16.20;97.90;;;;;;5089458;28;20499;-71
2021/09/02 01:22:25;;;;;;;12.57;8.00;;;16.20;98.00;;;;;;5086619;28;20020;-71
2021/09/02 01:24:51;;;;;;;13.10;7.90;;;16.20;98.00;;;;;;5068647;28;20042;-70
2021/09/02 01:27:18;;;;;;;13.98;8.35;;;16.20;98.00;;;;;;5086612;28;20036;-70
2021/09/02 01:29:50;;;;;;;11.82;7.57;;;16.20;98.00;;;;;;5082272;28;20118;-70
2021/09/02 01:32:15;;;;;;;14.70;8.85;;;16.20;98.00;;;;;;5106572;28;20077;-71
2021/09/02 01:34:41;;;;;;;13.73;8.05;;;16.20;97.80;;;;;;5107345;28;20070;-72
2021/09/02 01:37:06;;;;;;;13.73;8.07;;;16.20;98.20;;;;;;5105251;28;20111;-71
2021/09/02 01:39:32;;;;;;;12.52;7.97;;;16.20;98.20;;;;;;5088931;28;20394;-71
2021/09/02 01:41:57;;;;;;;12.20;7.65;;;16.20;98.10;;;;;;5106812;28;20034;-72
2021/09/02 01:44:24;;;;;;;14.13;8.70;;;16.20;98.10;;;;;;5106535;28;20042;-71
2021/09/02 01:46:49;;;;;;;13.02;8.25;;;16.20;98.30;;;;;;5102994;28;20027;-73
2021/09/02 01:49:16;;;;;;;14.07;8.27;;;16.20;98.30;;;;;;5106244;28;20069;-71
2021/09/02 01:51:44;;;;;;;14.40;8.93;;;16.20;98.30;;;;;;5106385;28;20032;-72
2021/09/02 01:54:11;;;;;;;12.90;8.30;;;16.20;98.30;;;;;;5106689;28;20028;-72
2021/09/02 01:56:37;;;;;;;12.23;8.13;;;16.20;98.40;;;;;;5097681;28;20393;-71
2021/09/02 01:59:02;;;;;;;13.95;8.57;;;16.20;98.30;;;;;;5085646;28;20016;-72
2021/09/02 02:01:28;;;;;;;12.98;8.07;;;16.20;98.40;;;;;;5086005;28;20043;-71
2021/09/02 02:03:53;;;;;;;13.75;8.82;;;16.20;98.40;;;;;;5086090;28;20095;-70
2021/09/02 02:06:19;;;;;;;13.85;8.55;;;16.20;98.40;;;;;;5097325;28;20039;-71
2021/09/02 02:08:44;;;;;;;13.60;8.80;;;16.10;98.40;;;;;;5090035;28;20047;-72
2021/09/02 02:11:10;;;;;;;14.60;8.65;;;16.20;98.50;;;;;;5085933;28;20109;-71
2021/09/02 02:13:35;;;;;;;13.48;8.07;;;16.20;98.50;;;;;;5085468;28;20032;-71
2021/09/02 02:16:01;;;;;;;13.32;8.00;;;16.20;98.40;;;;;;5094402;28;20020;-71
2021/09/02 02:18:26;;;;;;;12.93;7.85;;;16.10;98.50;;;;;;5103012;28;20027;-71
2021/09/02 02:20:52;;;;;;;13.60;8.13;;;16.10;98.50;;;;;;5085668;28;20016;-71
2021/09/02 02:23:17;;;;;;;13.48;8.27;;;16.20;98.50;;;;;;5085537;28;20031;-71
2021/09/02 02:25:43;;;;;;;13.98;8.15;;;16.10;98.50;;;;;;5091574;28;20035;-72
2021/09/02 02:28:08;;;;;;;14.82;8.32;;;16.10;98.70;;;;;;5105718;28;20685;-72
2021/09/02 02:30:34;;;;;;;14.95;8.85;;;16.10;98.50;;;;;;5105478;28;20053;-71
2021/09/02 02:33:00;;;;;;;13.40;9.05;;;16.10;98.60;;;;;;5102116;28;20039;-70
2021/09/02 02:35:25;;;;;;;13.25;8.30;;;16.10;98.70;;;;;;5091872;28;20076;-72
2021/09/02 02:37:51;;;;;;;13.93;8.57;;;16.10;98.60;;;;;;5105805;28;20036;-72
2021/09/02 02:40:17;;;;;;;14.73;8.98;;;16.10;98.60;;;;;;5101060;28;20024;-71
2021/09/02 02:42:44;;;;;;;14.55;9.30;;;16.10;98.70;;;;;;5085412;28;20082;-70
2021/09/02 02:45:10;;;;;;;12.60;8.07;;;16.10;98.70;;;;;;5071277;28;20055;-70
2021/09/02 02:47:36;;;;;;;13.98;8.27;;;16.10;98.70;;;;;;5105781;28;20070;-71
2021/09/02 02:50:03;;;;;;;16.42;9.13;;;16.10;98.70;;;;;;5092059;28;20047;-71
2021/09/02 02:52:28;;;;;;;13.55;8.23;;;16.10;98.70;;;;;;5096982;28;20038;-72
2021/09/02 02:54:54;;;;;;;15.25;8.75;;;16.10;98.60;;;;;;5101154;28;20771;-71
2021/09/02 02:57:19;;;;;;;13.75;7.88;;;16.10;98.70;;;;;;5086463;28;20027;-71
2021/09/02 02:59:45;;;;;;;14.65;8.25;;;16.10;98.70;;;;;;5103488;28;20039;-73
2021/09/02 03:02:10;;;;;;;14.75;8.57;;;16.10;98.70;;;;;;5105552;28;20027;-71
2021/09/02 03:04:36;;;;;;;14.35;9.10;;;16.10;98.70;;;;;;5087211;28;20412;-70
2021/09/02 03:07:02;;;;;;;14.75;9.30;;;16.10;98.60;;;;;;5094760;28;20036;-72
2021/09/02 03:09:28;;;;;;;13.95;8.38;;;16.10;98.60;;;;;;5084551;28;20031;-71
2021/09/02 03:11:53;;;;;;;14.10;8.52;;;16.10;98.60;;;;;;5085125;28;20377;-71
2021/09/02 03:14:19;;;;;;;13.50;8.43;;;16.10;98.60;;;;;;5101633;28;20042;-71
2021/09/02 03:16:44;;;;;;;14.75;8.93;;;16.10;98.60;;;;;;5097596;28;20028;-72
2021/09/02 03:19:10;;;;;;;13.80;8.40;;;16.10;98.60;;;;;;5086662;28;20024;-71
2021/09/02 03:21:35;;;;;;;15.23;9.00;;;16.10;98.60;;;;;;5105266;28;20039;-71
2021/09/02 03:24:01;;;;;;;14.10;8.80;;;16.10;98.70;;;;;;5105306;28;20050;-73
2021/09/02 03:26:26;;;;;;;13.52;8.23;;;16.10;98.60;;;;;;5100272;28;20483;-71
2021/09/02 03:28:52;;;;;;;15.57;8.77;;;16.10;98.60;;;;;;5084712;28;20398;-72
2021/09/02 03:31:17;;;;;;;16.40;9.63;;;16.10;98.60;;;;;;5084795;28;20039;-72
2021/09/02 03:33:43;;;;;;;13.45;8.55;;;16.10;98.60;;;;;;5084074;28;20032;-72
2021/09/02 03:36:09;;;;;;;12.75;8.43;;;16.10;98.60;;;;;;5085317;28;20043;-70
2021/09/02 03:38:34;;;;;;;13.82;8.95;;;16.10;98.50;;;;;;5089693;28;20485;-71
2021/09/02 03:41:00;;;;;;;13.32;8.20;;;16.20;98.60;;;;;;5104967;28;20605;-73
2021/09/02 03:43:26;;;;;;;14.20;8.95;;;16.10;98.50;;;;;;5080281;28;20035;-72
2021/09/02 03:45:51;;;;;;;14.40;9.10;;;16.10;98.50;;;;;;5085751;28;20028;-71
2021/09/02 03:48:17;;;;;;;14.02;9.25;;;16.10;98.40;;;;;;5090456;28;20407;-72
2021/09/02 03:50:43;;;;;;;14.50;8.98;;;16.10;98.50;;;;;;5097048;28;20039;-73
2021/09/02 03:53:09;;;;;;;15.00;8.93;;;16.10;98.40;;;;;;5105987;28;20031;-70
2021/09/02 03:55:34;;;;;;;13.35;8.52;;;16.10;98.50;;;;;;5090533;28;20038;-72
2021/09/02 03:58:00;;;;;;;13.75;8.55;;;16.20;98.40;;;;;;5108759;28;20076;-71
2021/09/02 04:00:25;;;;;;;15.05;9.20;;;16.10;98.40;;;;;;5098834;28;20020;-71
2021/09/02 04:02:51;;;;;;;14.52;8.32;;;16.10;98.40;;;;;;5108024;28;20032;-70
2021/09/02 04:05:16;;;;;;;15.68;9.25;;;16.10;98.50;;;;;;5088513;28;20019;-71
2021/09/02 04:07:42;;;;;;;15.05;9.13;;;16.10;98.40;;;;;;5079379;28;20031;-69
2021/09/02 04:10:08;;;;;;;14.52;8.93;;;16.10;98.40;;;;;;5078166;28;20028;-70
2021/09/02 04:12:34;;;;;;;14.70;8.90;;;16.20;98.40;;;;;;5087298;28;20032;-70
2021/09/02 04:14:59;;;;;;;16.65;10.05;;;16.10;98.40;;;;;;5095320;28;20023;-70
2021/09/02 04:17:25;;;;;;;16.92;8.95;;;16.10;98.30;;;;;;5103853;28;20455;-72
2021/09/02 04:19:50;;;;;;;15.27;9.50;;;16.20;98.40;;;;;;5094585;28;20027;-71
2021/09/02 04:22:16;;;;;;;13.18;8.60;;;16.20;98.40;;;;;;5088067;28;20028;-71
2021/09/02 04:24:42;;;;;;;14.10;8.48;;;16.20;98.30;;;;;;5088470;28;20504;-70
2021/09/02 04:27:10;;;;;;;14.75;8.73;;;16.20;98.40;;;;;;5072408;28;20395;-72
2021/09/02 04:29:36;;;;;;;14.27;8.32;;;16.20;98.40;;;;;;5088824;28;20030;-71
2021/09/02 04:32:02;;;;;;;15.23;8.18;;;16.20;98.40;;;;;;5106211;28;20035;-72
2021/09/02 04:34:27;;;;;;;12.68;8.27;;;16.10;98.30;;;;;;5085939;28;20032;-71
2021/09/02 04:36:53;;;;;;;14.90;8.48;;;16.20;98.40;;;;;;5090056;28;20023;-71
2021/09/02 04:39:18;;;;;;;13.30;8.48;;;16.10;98.30;;;;;;5089112;28;20055;-70
2021/09/02 04:41:44;;;;;;;13.55;8.00;;;16.10;98.30;;;;;;5107689;28;20027;-71
2021/09/02 04:44:09;;;;;;;13.43;8.70;;;16.10;98.40;;;;;;5106676;28;20028;-71
2021/09/02 04:46:35;;;;;;;14.65;8.20;;;16.20;98.40;;;;;;5090784;28;20041;-71
2021/09/02 04:49:00;;;;;;;13.90;8.10;;;16.20;98.40;;;;;;5089245;28;20028;-70
2021/09/02 04:51:26;;;;;;;16.77;8.57;;;16.20;98.40;;;;;;5086708;28;20036;-71
2021/09/02 04:53:51;;;;;;;14.35;8.65;;;16.20;98.40;;;;;;5095606;28;20103;-70
2021/09/02 04:56:17;;;;;;;13.20;8.10;;;16.20;98.30;;;;;;5090593;28;20032;-71
2021/09/02 04:58:42;;;;;;;15.10;8.63;;;16.20;98.10;;;;;;5087286;28;20024;-70
2021/09/02 05:01:08;;;;;;;14.88;8.80;;;16.20;98.20;;;;;;5099988;28;20513;-70
2021/09/02 05:03:33;;;;;;;13.57;8.00;;;16.10;98.20;;;;;;5104304;28;20037;-71
2021/09/02 05:05:59;;;;;;;13.65;8.77;;;16.20;98.30;;;;;;5087220;28;20475;-70
2021/09/02 05:08:24;;;;;;;13.85;8.48;;;16.20;98.30;;;;;;5098602;28;20632;-70
2021/09/02 05:10:51;;;;;;;13.23;8.10;;;16.20;98.20;;;;;;5106390;28;20069;-72
2021/09/02 05:13:17;;;;;;;13.75;8.50;;;16.20;98.10;;;;;;5090240;28;20056;-71
2021/09/02 05:15:42;;;;;;;13.57;8.50;;;16.20;98.30;;;;;;5099636;28;20028;-71
2021/09/02 05:18:08;;;;;;;14.40;8.27;;;16.20;98.10;;;;;;5090852;28;20094;-71
2021/09/02 05:20:34;;;;;;;13.70;8.32;;;16.20;98.10;;;;;;5085101;28;20442;-73
2021/09/02 05:22:59;;;;;;;12.70;8.30;;;16.20;98.20;;;;;;5102158;28;20596;-72
2021/09/02 05:25:25;;;;;;;14.25;8.20;;;16.20;98.10;;;;;;5105793;28;20019;-71
2021/09/02 05:27:51;;;;;;;12.93;7.95;;;16.20;98.00;;;;;;5092574;28;20081;-71
2021/09/02 05:30:17;;;;;;;16.67;8.35;;;16.20;98.10;;;;;;5088131;28;20019;-70
2021/09/02 05:32:43;;;;;;;12.73;7.63;;;16.20;98.00;;;;;;5088041;28;20027;-70
2021/09/02 05:35:10;;;;;;;11.98;7.70;;;16.20;97.90;;;;;;5075703;28;20484;-73
2021/09/02 05:37:36;;;;;;;11.32;7.47;;;16.20;98.10;;;;;;5075000;28;20088;-72
2021/09/02 05:40:02;;;;;;;15.05;8.60;;;16.20;98.00;;;;;;5092770;28;20027;-72
2021/09/02 05:42:28;;;;;;;13.82;8.43;;;16.20;97.90;;;;;;5097310;28;20050;-70
2021/09/02 05:44:53;;;;;;;12.95;7.47;;;16.20;97.90;;;;;;5075075;28;20028;-72
2021/09/02 05:47:19;;;;;;;12.10;7.63;;;16.20;98.00;;;;;;5094286;28;20082;-70
2021/09/02 05:49:44;;;;;;;15.25;8.88;;;16.20;98.00;;;;;;5086005;28;20031;-70
2021/09/02 05:52:10;;;;;;;20.25;7.97;;;16.20;98.10;;;;;;5068497;28;20126;-71
2021/09/02 05:54:35;;;;;;;18.30;9.00;;;16.30;98.10;;;;;;5068025;28;20028;-71
2021/09/02 05:57:01;;;;;;;12.52;7.55;;;16.20;98.10;;;;;;5088251;28;20024;-69
2021/09/02 05:59:26;;;;;;;15.93;9.20;;;16.20;98.00;;;;;;5076260;28;20450;-72
2021/09/02 06:01:52;;;;;;;16.92;8.57;;;16.20;97.90;;;;;;5085971;28;20043;-72
2021/09/02 06:04:17;;;;;;;14.90;8.05;;;16.30;97.80;;;;;;5099600;28;20051;-72
2021/09/02 06:06:43;;;;;;;13.30;8.00;;;16.20;97.70;;;;;;5078517;28;20067;-72
2021/09/02 06:09:08;;;;;;;12.77;7.90;;;16.30;97.80;;;;;;5099058;28;20066;-70
2021/09/02 06:11:35;;;;;;;13.65;8.13;;;16.30;98.00;;;;;;5094495;28;20492;-72
2021/09/02 06:14:01;;;;;;;13.30;8.25;;;16.30;97.70;;;;;;5097442;28;20876;-70
2021/09/02 06:16:26;;;;;;;13.02;8.43;;;16.30;97.70;;;;;;5093594;28;20035;-71
2021/09/02 06:18:52;;;;;;;15.30;8.68;;;16.30;97.60;;;;;;5075667;28;20110;-71
2021/09/02 06:21:18;;;;;;;15.25;8.70;;;16.30;97.60;;;;;;5093448;28;20036;-72
2021/09/02 06:23:44;;;;;;;15.27;8.95;;;16.30;97.50;;;;;;5077343;28;20023;-71
2021/09/02 06:26:09;;;;;;;13.93;8.20;;;16.40;97.50;;;;;;5092650;28;20027;-71
2021/09/02 06:28:35;;;;;;;15.20;8.95;;;16.30;97.50;;;;;;5083823;28;20616;-71
2021/09/02 06:31:01;;;;;;;12.15;7.65;;;16.30;97.40;;;;;;5069657;28;20111;-72
2021/09/02 06:33:26;;;;;;;15.95;8.95;;;16.30;97.50;;;;;;5099778;28;20036;-70
2021/09/02 06:35:53;;;;;;;13.13;8.18;;;16.30;97.40;;;;;;5088201;28;20044;-71
2021/09/02 06:38:19;;;;;;;14.73;8.27;;;16.30;97.40;;;;;;5085462;28;20030;-70
2021/09/02 06:40:44;;;;;;;16.88;8.02;;;16.30;97.50;;;;;;5104739;28;20024;-72
2021/09/02 06:43:10;;;;;;;12.63;8.13;;;16.30;97.50;;;;;;5095062;28;20511;-72
2021/09/02 06:45:35;;;;;;;13.20;8.68;;;16.30;97.40;;;;;;5086788;28;20032;-70
2021/09/02 06:48:01;;;;;;;14.43;8.15;;;16.30;97.50;;;;;;5085727;28;20016;-72
2021/09/02 06:50:26;;;;;;;13.88;8.63;;;16.40;97.60;;;;;;5066683;28;20085;-71
2021/09/02 06:52:52;;;;;;;13.73;8.32;;;16.30;97.50;;;;;;5085462;28;20571;-72
2021/09/02 06:55:18;;;;;;;13.13;8.52;;;16.30;97.30;;;;;;5085104;28;20316;-71
2021/09/02 06:57:43;;;;;;;14.68;8.57;;;16.30;97.40;;;;;;5067350;28;20024;-71
2021/09/02 07:00:10;;;;;;;13.05;8.25;;;16.30;97.40;;;;;;5093827;28;20036;-71
2021/09/02 07:02:35;;;;;;;13.85;8.25;;;16.40;97.40;;;;;;5096046;28;20081;-71
2021/09/02 07:05:03;;;;;;;15.35;8.90;;;16.30;97.40;;;;;;5085665;28;20024;-71
2021/09/02 07:07:29;;;;;;;14.75;8.60;;;16.40;97.50;;;;;;5069565;28;20044;-71
2021/09/02 07:09:55;;;;;;;14.10;8.50;;;16.40;97.50;;;;;;5103711;28;20106;-72
2021/09/02 07:12:20;;;;;;;12.90;8.05;;;16.40;97.50;;;;;;5103375;28;20464;-72
2021/09/02 07:14:46;;;;;;;13.70;8.13;;;16.40;97.50;;;;;;5077622;28;20055;-71
2021/09/02 07:17:12;;;;;;;14.00;8.70;;;16.40;97.50;;;;;;5076079;28;20453;-73
2021/09/02 07:19:37;;;;;;;14.75;8.50;;;16.40;97.60;;;;;;5085301;28;20819;-71
2021/09/02 07:22:03;;;;;;;15.18;8.55;;;16.40;97.50;;;;;;5091158;28;20968;-71
2021/09/02 07:24:29;;;;;;;13.02;7.78;;;16.40;97.50;;;;;;5089608;28;20028;-72
2021/09/02 07:26:57;;;;;;;12.50;8.38;;;16.40;97.50;;;;;;5090568;28;20073;-73
2021/09/02 07:29:23;;;;;;;14.15;8.45;;;16.50;97.40;;;;;;5076438;28;20024;-70
2021/09/02 07:31:48;;;;;;;12.90;7.90;;;16.50;97.40;;;;;;5086178;28;20553;-72
2021/09/02 07:34:14;;;;;;;15.57;8.32;;;16.50;97.40;;;;;;5089159;28;20035;-73
2021/09/02 07:36:40;;;;;;;13.10;7.65;;;16.50;97.30;;;;;;5104115;28;20020;-71
2021/09/02 07:39:06;;;;;;;14.57;8.18;;;16.50;97.40;;;;;;5102403;28;20488;-71
2021/09/02 07:41:32;;;;;;;13.90;7.40;;;16.50;97.40;;;;;;5088565;28;20020;-71
2021/09/02 07:43:58;;;;;;;14.00;8.10;;;16.40;97.40;;;;;;5070498;28;20030;-73
2021/09/02 07:46:24;;;;;;;14.55;7.68;;;16.50;97.30;;;;;;5069326;28;20024;-72
2021/09/02 07:48:50;;;;;;;12.75;7.40;;;16.50;97.30;;;;;;5089082;28;20036;-73
2021/09/02 07:51:17;;;;;;;13.93;7.85;;;16.50;97.30;;;;;;5087975;28;20028;-71
2021/09/02 07:53:43;;;;;;;13.23;7.57;;;16.50;97.40;;;;;;5107215;28;20027;-72
2021/09/02 07:56:09;;;;;;;15.60;8.13;;;16.50;97.30;;;;;;5095085;28;20042;-71
2021/09/02 07:58:35;;;;;;;12.38;7.18;;;16.50;97.30;;;;;;5087989;28;20503;-72
2021/09/02 08:01:01;;;;;;;12.95;6.97;;;16.50;97.20;;;;;;5069501;28;20028;-70
2021/09/02 08:03:27;;;;;;;12.27;7.15;;;16.60;97.20;;;;;;5089600;28;20103;-72
2021/09/02 08:05:53;;;;;;;13.68;7.18;;;16.60;97.20;;;;;;5087967;28;20119;-71
2021/09/02 08:08:19;;;;;;;13.02;6.88;;;16.60;97.10;;;;;;5069564;28;20028;-71
2021/09/02 08:10:46;;;;;;;15.45;7.50;;;16.60;97.10;;;;;;5069614;28;20522;-71
2021/09/02 08:13:11;;;;;;;12.23;7.10;;;16.60;97.10;;;;;;5087713;28;20040;-72
2021/09/02 08:15:38;;;;;;;12.88;7.30;;;16.70;97.00;;;;;;5069413;28;20020;-71
2021/09/02 08:18:05;;;;;;;13.05;7.10;;;16.70;96.90;;;;;;5087923;28;20028;-70
2021/09/02 08:20:31;;;;;;;13.15;6.93;;;16.70;96.90;;;;;;5087673;28;20123;-70
2021/09/02 08:22:56;;;;;;;12.35;6.50;;;16.70;96.90;;;;;;5088112;28;20307;-70
2021/09/02 08:25:22;;;;;;;12.57;6.78;;;16.70;96.70;;;;;;5088462;28;20071;-70
2021/09/02 08:27:49;;;;;;;13.40;7.35;;;16.80;96.50;;;;;;5077280;28;20275;-71
2021/09/02 08:30:16;;;;;;;14.05;7.68;;;16.80;96.50;;;;;;5076575;28;20028;-70
2021/09/02 08:32:47;;;;;;;13.60;7.32;;;16.80;96.60;;;;;;5077083;28;20042;-70
2021/09/02 08:35:16;;;;;;;11.68;7.00;;;16.80;96.50;;;;;;5092104;28;20024;-71
2021/09/02 08:37:41;;;;;;;13.23;6.80;;;17.00;96.20;;;;;;5070138;28;20034;-70
2021/09/02 08:40:08;;;;;;;13.82;6.88;;;17.20;95.70;;;;;;5095840;28;20019;-72
2021/09/02 08:42:33;;;;;;;12.80;6.38;;;17.30;95.30;;;;;;5107681;28;20084;-71
2021/09/02 08:44:59;;;;;;;15.38;7.10;;;17.40;95.10;;;;;;5104051;28;20430;-70
2021/09/02 08:47:26;;;;;;;10.90;6.57;;;17.40;95.00;;;;;;5107567;28;20366;-72
2021/09/02 08:49:54;;;;;;;14.63;7.10;;;17.40;95.00;;;;;;5106014;28;20032;-72
2021/09/02 08:52:20;;;;;;;14.02;7.45;;;17.20;95.30;;;;;;5098160;28;20395;-70
2021/09/02 08:54:47;;;;;;;15.25;6.95;;;17.10;95.60;;;;;;5076907;28;20681;-70
2021/09/02 08:57:14;;;;;;;14.63;7.18;;;17.20;95.70;;;;;;5097120;28;20027;-73
2021/09/02 08:59:39;;;;;;;13.82;6.78;;;17.10;95.80;;;;;;5086782;28;20024;-71
2021/09/02 09:02:23;;;;;;;13.82;6.82;;;17.00;96.00;;;;;;5087103;28;20026;-70
2021/09/02 09:05:00;;;;;;;12.57;7.03;;;17.00;96.10;;;;;;5086883;28;20028;-70
2021/09/02 09:07:36;;;;;;;13.30;6.93;;;17.10;96.10;;;;;;5086772;28;20081;-71
2021/09/02 09:10:04;;;;;;;12.25;6.32;;;17.00;96.10;;;;;;5091486;28;20036;-73
2021/09/02 09:12:37;;;;;;;15.57;7.22;;;17.10;96.10;;;;;;5075319;28;20027;-71
2021/09/02 09:15:05;;;;;;;16.58;8.10;;;17.10;95.90;;;;;;5101336;28;20098;-72
2021/09/02 09:17:31;;;;;;;16.88;7.68;;;17.10;95.30;;;;;;5071104;28;20024;-71
2021/09/02 09:19:57;;;;;;;17.33;8.00;;;17.10;95.40;;;;;;5068409;28;20023;-71
2021/09/02 09:22:28;;;;;;;16.55;7.60;;;17.10;95.70;;;;;;5086809;28;20077;-71
2021/09/02 09:24:59;;;;;;;15.98;7.30;;;17.10;95.80;;;;;;5068549;28;20042;-72
2021/09/02 09:27:38;;;;;;;15.15;7.72;;;17.10;95.90;;;;;;5088626;28;20028;-73
2021/09/02 09:30:22;;;;;;;15.52;7.50;;;17.10;95.80;;;;;;5083890;28;20369;-71
2021/09/02 09:32:56;;;;;;;16.17;7.38;;;17.20;95.90;;;;;;5077641;28;20032;-72
2021/09/02 09:35:29;;;;;;;13.50;7.72;;;17.10;95.70;;;;;;5086759;28;20380;-71
2021/09/02 09:38:08;;;;;;;13.30;7.55;;;17.10;95.60;;;;;;5068217;28;20107;-72
2021/09/02 09:40:38;;;;;;;14.88;7.55;;;17.20;95.60;;;;;;5085871;28;20016;-71
2021/09/02 09:43:09;;;;;;;15.30;7.55;;;17.20;95.60;;;;;;5067750;28;20539;-70
2021/09/02 09:45:44;;;;;;;16.50;7.82;;;17.20;95.60;;;;;;5086102;28;20421;-70
2021/09/02 09:48:28;;;;;;;17.08;8.23;;;17.20;95.60;;;;;;5094103;28;20493;-69
2021/09/02 09:51:09;;;;;;;13.43;7.30;;;17.10;95.70;;;;;;5087135;28;20035;-71
2021/09/02 09:53:35;;;;;;;15.52;8.60;;;17.10;95.80;;;;;;5074748;28;20035;-72
2021/09/02 09:56:01;;;;;;;16.00;8.02;;;17.10;95.90;;;;;;5099645;28;20088;-69
2021/09/02 09:58:28;;;;;;;15.48;7.97;;;17.10;95.50;;;;;;5098435;28;20032;-72
2021/09/02 10:00:58;;;;;;;13.07;7.47;;;17.20;95.60;;;;;;5106226;28;20030;-70
2021/09/02 10:03:25;;;;;;;13.25;7.93;;;17.10;95.80;;;;;;5106717;28;20585;-72
2021/09/02 10:05:51;;;;;;;14.80;7.68;;;17.10;95.90;;;;;;5106138;28;20092;-70
2021/09/02 10:08:18;;;;;;;13.63;7.60;;;17.10;96.00;;;;;;5087721;28;20514;-70
2021/09/02 10:10:44;;;;;;;13.77;8.23;;;17.10;95.90;;;;;;5105947;28;20032;-69
2021/09/02 10:13:11;;;;;;;16.20;8.50;;;17.10;95.80;;;;;;5106254;28;20027;-70
2021/09/02 10:15:36;;;;;;;17.08;8.75;;;17.20;95.80;;;;;;5082266;28;20032;-69
2021/09/02 10:18:03;;;;;;;15.57;9.07;;;17.20;95.60;;;;;;5079434;28;20115;-71
2021/09/02 10:20:33;;;;;;;15.57;8.93;;;17.20;95.50;;;;;;5070009;28;20027;-70
2021/09/02 10:23:01;;;;;;;16.33;8.73;;;17.30;95.50;;;;;;5067539;28;20024;-72
2021/09/02 10:25:38;;;;;;;15.60;8.48;;;17.20;95.50;;;;;;5085585;28;20028;-70
2021/09/02 10:28:12;;;;;;;14.55;8.07;;;17.20;95.50;;;;;;5088520;28;20051;-71
2021/09/02 10:30:50;;;;;;;14.35;8.32;;;17.30;95.40;;;;;;5085607;28;20131;-71
2021/09/02 10:33:37;;;;;;;15.48;8.50;;;17.30;95.60;;;;;;5095270;28;20032;-71
2021/09/02 10:36:11;;;;;;;15.85;8.60;;;17.20;95.50;;;;;;5085442;28;20035;-69
2021/09/02 10:38:41;;;;;;;15.82;8.65;;;17.20;95.40;;;;;;5085447;28;20020;-70
2021/09/02 10:41:09;;;;;;;19.67;9.20;;;17.20;95.40;;;;;;5085440;28;20095;-71
2021/09/02 10:43:54;;;;;;;16.80;8.95;;;17.20;95.30;;;;;;5067234;28;20963;-72
2021/09/02 10:47:01;;;;;;;16.65;9.50;;;17.30;95.30;;;;;;5101736;28;20024;-71
2021/09/02 10:49:36;;;;;;;16.98;8.73;;;17.30;95.40;;;;;;5048988;28;20028;-71
2021/09/02 10:52:24;;;;;;;13.93;8.98;;;17.30;95.40;;;;;;5084880;28;20357;-69
2021/09/02 10:54:49;;;;;;;15.63;8.90;;;17.30;95.20;;;;;;5104363;28;20745;-72
2021/09/02 10:57:15;;;;;;;15.32;8.95;;;17.30;95.30;;;;;;5103992;28;20106;-71
2021/09/02 10:59:42;;;;;;;14.95;8.65;;;17.30;95.30;;;;;;5098167;28;20027;-70
2021/09/02 11:02:30;;;;;;;16.77;8.65;;;17.30;95.40;;;;;;5087191;28;20012;-72
2021/09/02 11:05:00;;;;;;;16.73;9.38;;;17.30;95.40;;;;;;5089389;28;20039;-71
2021/09/02 11:07:37;;;;;;;16.40;8.63;;;17.30;95.40;;;;;;5089273;28;20034;-73
2021/09/02 11:10:08;;;;;;;17.05;9.52;;;17.30;95.20;;;;;;5076584;28;20123;-72
2021/09/02 11:12:33;;;;;;;15.13;9.00;;;17.30;95.20;;;;;;5089764;28;20032;-72
2021/09/02 11:14:59;;;;;;;15.73;9.35;;;17.30;95.40;;;;;;5100892;28;20028;-72
2021/09/02 11:17:24;;;;;;;18.67;9.77;;;17.20;95.50;;;;;;5109877;28;20041;-72
2021/09/02 11:19:50;;;;;;;16.55;9.38;;;17.30;95.30;;;;;;5109383;28;20472;-70
2021/09/02 11:22:17;;;;;;;13.95;8.93;;;17.30;95.30;;;;;;5109979;28;20027;-71
2021/09/02 11:24:45;;;;;;;16.33;8.93;;;17.30;95.30;;;;;;5099414;28;20024;-73
2021/09/02 11:27:23;;;;;;;16.85;9.45;;;17.30;95.50;;;;;;5095550;28;20808;-71
2021/09/02 11:29:49;;;;;;;15.20;9.25;;;17.30;95.30;;;;;;5095520;28;20035;-70
2021/09/02 11:32:15;;;;;;;19.75;9.70;;;17.20;95.50;;;;;;5091203;28;20504;-72
2021/09/02 11:34:41;;;;;;;18.95;10.00;;;17.30;95.60;;;;;;5093233;28;20037;-70
2021/09/02 11:37:07;;;;;;;17.90;9.70;;;17.20;95.50;;;;;;5103488;28;20148;-71
2021/09/02 11:39:35;;;;;;;15.70;9.75;;;17.20;95.70;;;;;;5103658;28;20526;-73
2021/09/02 11:42:10;;;;;;;19.40;10.15;;;17.20;95.30;;;;;;5090443;28;20027;-71
2021/09/02 11:44:37;;;;;;;18.40;10.45;;;17.10;95.30;;;;;;5078830;28;20115;-72
2021/09/02 11:47:08;;;;;;;18.75;10.20;;;17.30;94.80;;;;;;5092381;28;20070;-70
2021/09/02 11:49:34;;;;;;;17.98;10.52;;;17.40;95.10;;;;;;5087050;28;20028;-71
2021/09/02 11:52:00;;;;;;;16.48;9.63;;;17.40;95.00;;;;;;5094847;28;20039;-72
2021/09/02 11:54:27;;;;;;;18.92;9.98;;;17.40;95.00;;;;;;5078057;28;20038;-70
2021/09/02 11:56:53;;;;;;;25.45;10.15;;;17.40;94.90;;;;;;5093297;28;20032;-70
2021/09/02 11:59:19;;;;;;;20.25;10.02;;;17.50;95.00;;;;;;5101244;28;20484;-71
2021/09/02 12:01:50;;;;;;;18.92;9.98;;;17.40;95.00;;;;;;5090265;28;20024;-70
2021/09/02 12:04:21;;;;;;;17.85;9.45;;;17.40;95.10;;;;;;5094625;28;20086;-72
2021/09/02 12:06:50;;;;;;;15.25;9.18;;;17.40;95.00;;;;;;5097200;28;20024;-70
2021/09/02 12:09:21;;;;;;;18.75;9.98;;;17.40;95.20;;;;;;5090378;28;20043;-71
2021/09/02 12:11:48;;;;;;;17.47;9.77;;;17.50;95.20;;;;;;5086331;28;20548;-70
2021/09/02 12:14:22;;;;;;;18.02;9.40;;;17.40;95.10;;;;;;5084391;28;20662;-70
2021/09/02 12:17:10;;;;;;;18.17;10.50;;;17.50;95.20;;;;;;5090204;28;20020;-71
2021/09/02 12:19:55;;;;;;;16.95;9.95;;;17.40;95.00;;;;;;5098428;28;20054;-72
2021/09/02 12:22:24;;;;;;;15.82;9.65;;;17.50;95.20;;;;;;5093368;28;20028;-72
2021/09/02 12:24:50;;;;;;;16.77;9.70;;;17.50;95.30;;;;;;5088055;28;20031;-70
2021/09/02 12:27:15;;;;;;;15.63;9.65;;;17.50;95.10;;;;;;5087730;28;20024;-70
2021/09/02 12:29:49;;;;;;;24.52;10.88;;;17.50;95.10;;;;;;5087630;28;20089;-70
2021/09/02 12:32:17;;;;;;;21.60;10.23;;;17.50;95.00;;;;;;5069735;28;20119;-74
2021/09/02 12:34:42;;;;;;;19.40;10.13;;;17.60;95.00;;;;;;5087722;28;20123;-71
2021/09/02 12:37:11;;;;;;;18.38;11.20;;;17.60;94.90;;;;;;5070410;28;20122;-71